Time;durP1;ratioP1;P1;durP2;ratioP2;P2;SDS_P1;SDS_P2;PMS_P1;PMS_P2;Temp;Humidity;BMP_temperature;BMP_pressure;BME280_temperature;BME280_humidity;BME280_pressure;Samples;Min_cycle;Max_cycle;Signal;HPM_P1;HPM_P2
2021/03/22 00:00:54;;;;;;;15.77;8.57;;;4.20;99.90;;;;;;5052913;28;20243;-81
2021/03/22 00:03:21;;;;;;;23.07;9.90;;;4.30;99.90;;;;;;5053055;28;20473;-82
2021/03/22 00:05:47;;;;;;;21.90;9.23;;;3.90;99.90;;;;;;5053407;28;20440;-81
2021/03/22 00:08:16;;;;;;;21.03;10.30;;;4.30;99.90;;;;;;5053255;28;20438;-82
2021/03/22 00:10:44;;;;;;;12.67;7.93;;;4.30;99.90;;;;;;5071343;28;20425;-82
2021/03/22 00:13:10;;;;;;;19.60;9.73;;;3.90;99.90;;;;;;5053065;28;20448;-81
2021/03/22 00:15:37;;;;;;;24.90;8.23;;;4.30;99.90;;;;;;5053203;28;20475;-82
2021/03/22 00:18:06;;;;;;;15.37;7.70;;;3.80;99.90;;;;;;5052994;28;20490;-82
2021/03/22 00:20:32;;;;;;;17.37;8.83;;;3.80;99.90;;;;;;5053002;28;20460;-82
2021/03/22 00:22:57;;;;;;;11.63;6.70;;;3.90;99.90;;;;;;5070950;28;20496;-82
2021/03/22 00:25:24;;;;;;;15.77;7.40;;;4.10;99.90;;;;;;5052949;28;20233;-82
2021/03/22 00:27:50;;;;;;;24.90;8.13;;;3.90;99.90;;;;;;5052889;28;20187;-82
2021/03/22 00:30:21;;;;;;;19.13;8.90;;;4.10;99.90;;;;;;5052886;28;20608;-82
2021/03/22 00:32:47;;;;;;;19.80;8.33;;;4.30;99.90;;;;;;5052943;28;20241;-82
2021/03/22 00:35:13;;;;;;;24.23;8.03;;;4.30;99.90;;;;;;5071055;28;20789;-82
2021/03/22 00:37:39;;;;;;;18.90;8.80;;;4.10;99.90;;;;;;5052938;28;20425;-82
2021/03/22 00:40:06;;;;;;;17.73;7.30;;;3.90;99.90;;;;;;5053062;28;20441;-82
2021/03/22 00:42:31;;;;;;;17.40;7.50;;;4.30;99.90;;;;;;5070683;28;20195;-81
2021/03/22 00:44:57;;;;;;;16.07;8.63;;;3.80;99.90;;;;;;5052932;28;20781;-82
2021/03/22 00:47:22;;;;;;;24.13;7.57;;;3.90;99.90;;;;;;5070848;28;20653;-82
2021/03/22 00:49:48;;;;;;;17.30;8.10;;;3.70;99.90;;;;;;5052650;28;20183;-82
2021/03/22 00:52:14;;;;;;;20.37;8.97;;;3.70;99.90;;;;;;5053103;28;20182;-82
2021/03/22 00:54:40;;;;;;;16.27;6.97;;;4.30;99.90;;;;;;5052802;28;20170;-81
2021/03/22 00:57:08;;;;;;;18.90;7.37;;;4.20;99.90;;;;;;5070822;28;20167;-81
2021/03/22 00:59:34;;;;;;;16.23;8.07;;;4.00;99.90;;;;;;5052791;28;20515;-82
2021/03/22 01:02:00;;;;;;;17.40;7.73;;;4.00;99.90;;;;;;5052764;28;21057;-82
2021/03/22 01:04:25;;;;;;;16.60;8.90;;;3.80;99.90;;;;;;5070802;28;20634;-82
2021/03/22 01:06:51;;;;;;;26.20;8.10;;;3.60;99.90;;;;;;5074263;28;20471;-82
2021/03/22 01:09:17;;;;;;;27.00;9.27;;;3.60;99.90;;;;;;5056216;28;20663;-82
2021/03/22 01:11:43;;;;;;;9.20;7.00;;;3.90;99.90;;;;;;5056054;28;20174;-81
2021/03/22 01:14:09;;;;;;;15.63;7.70;;;3.90;99.90;;;;;;5056263;28;20421;-82
2021/03/22 01:16:36;;;;;;;17.03;7.33;;;3.60;99.90;;;;;;5074187;28;20431;-81
2021/03/22 01:19:28;;;;;;;21.80;9.10;;;3.90;99.90;;;;;;5056055;28;20175;-81
2021/03/22 01:21:57;;;;;;;13.73;6.37;;;4.00;99.90;;;;;;5051477;28;20465;-82
2021/03/22 01:24:26;;;;;;;23.13;8.03;;;3.90;99.90;;;;;;5055856;28;20422;-82
2021/03/22 01:26:54;;;;;;;21.93;8.03;;;4.00;99.90;;;;;;5055881;28;20453;-81
2021/03/22 01:29:27;;;;;;;14.73;7.63;;;4.10;99.90;;;;;;5055719;28;20524;-82
2021/03/22 01:31:57;;;;;;;16.30;7.13;;;3.60;99.90;;;;;;5055753;28;20424;-82
2021/03/22 01:34:23;;;;;;;13.50;6.63;;;4.10;99.90;;;;;;5056068;28;20424;-82
2021/03/22 01:36:48;;;;;;;21.87;7.77;;;3.80;99.90;;;;;;5055666;28;20879;-82
2021/03/22 01:39:26;;;;;;;20.10;6.33;;;4.00;99.90;;;;;;5055999;28;20510;-81
2021/03/22 01:42:39;;;;;;;16.27;6.90;;;3.50;99.90;;;;;;5055707;28;20530;-82
2021/03/22 01:45:08;;;;;;;20.83;7.70;;;3.80;99.90;;;;;;4956237;28;20946;-81
2021/03/22 01:47:35;;;;;;;17.50;6.73;;;3.90;99.90;;;;;;5041127;28;20428;-82
2021/03/22 01:50:12;;;;;;;18.17;6.10;;;3.70;99.90;;;;;;5055449;28;20776;-82
2021/03/22 01:52:41;;;;;;;16.03;5.50;;;4.00;99.90;;;;;;5055532;28;20498;-81
2021/03/22 01:55:09;;;;;;;16.47;6.60;;;3.90;99.90;;;;;;5055303;28;20436;-81
2021/03/22 01:57:43;;;;;;;15.83;6.13;;;3.90;99.90;;;;;;5055164;28;20426;-82
2021/03/22 02:00:22;;;;;;;14.97;6.23;;;3.50;99.90;;;;;;5054960;28;20469;-81
2021/03/22 02:02:50;;;;;;;19.03;6.20;;;4.00;99.90;;;;;;5055332;28;20480;-82
2021/03/22 02:05:21;;;;;;;18.20;5.40;;;3.90;99.90;;;;;;5072378;28;20426;-81
2021/03/22 02:07:53;;;;;;;21.63;7.07;;;3.90;99.90;;;;;;5055288;28;20429;-82
2021/03/22 02:10:19;;;;;;;13.50;6.00;;;3.60;99.90;;;;;;5073103;28;20893;-81
2021/03/22 02:12:46;;;;;;;16.93;6.30;;;3.70;99.90;;;;;;5055429;28;20432;-82
2021/03/22 02:15:12;;;;;;;15.23;6.40;;;3.90;99.90;;;;;;5073286;28;20801;-81
2021/03/22 02:18:03;;;;;;;13.10;5.30;;;3.90;99.90;;;;;;5053691;28;20426;-81
2021/03/22 02:21:00;;;;;;;11.37;6.10;;;3.90;99.90;;;;;;5072778;28;20406;-81
2021/03/22 02:23:56;;;;;;;8.07;3.33;;;3.80;99.90;;;;;;5054734;28;20477;-81
2021/03/22 02:26:53;;;;;;;8.00;3.67;;;3.70;99.90;;;;;;5054741;28;20780;-81
2021/03/22 02:29:31;;;;;;;16.13;8.87;;;3.80;99.90;;;;;;5054639;28;20459;-81
2021/03/22 02:32:29;;;;;;;17.60;6.30;;;3.60;99.90;;;;;;5054687;28;20504;-81
2021/03/22 02:35:03;;;;;;;11.23;5.27;;;3.40;99.90;;;;;;5054576;28;20429;-82
2021/03/22 02:37:39;;;;;;;22.53;4.93;;;3.90;99.90;;;;;;5072431;28;20444;-82
2021/03/22 02:40:17;;;;;;;14.93;4.70;;;3.80;99.90;;;;;;5072494;28;20417;-82
2021/03/22 02:42:45;;;;;;;13.87;5.60;;;3.90;99.90;;;;;;5054389;28;20556;-81
2021/03/22 02:45:22;;;;;;;16.73;5.53;;;3.80;99.90;;;;;;5054303;28;20903;-81
2021/03/22 02:47:48;;;;;;;15.17;7.27;;;3.80;99.90;;;;;;5054624;28;20417;-81
2021/03/22 02:50:17;;;;;;;7.60;4.10;;;3.80;99.90;;;;;;5054303;28;20417;-82
2021/03/22 02:53:01;;;;;;;17.87;6.40;;;3.30;99.90;;;;;;5054582;28;20186;-82
2021/03/22 02:55:47;;;;;;;20.53;5.50;;;3.70;99.90;;;;;;5054256;28;20420;-82
2021/03/22 02:58:15;;;;;;;19.27;5.20;;;3.90;99.90;;;;;;5054102;28;20414;-81
2021/03/22 03:00:46;;;;;;;18.67;6.87;;;3.70;99.90;;;;;;5053867;28;20727;-82
2021/03/22 03:03:16;;;;;;;14.20;5.50;;;3.60;99.90;;;;;;5072078;28;20553;-81
2021/03/22 03:05:48;;;;;;;17.77;5.47;;;3.60;99.90;;;;;;5072439;28;20444;-81
2021/03/22 03:08:15;;;;;;;14.20;5.53;;;3.50;99.90;;;;;;5071971;28;20401;-81
2021/03/22 03:10:40;;;;;;;8.67;5.10;;;3.70;99.90;;;;;;5054172;28;20426;-82
2021/03/22 03:13:06;;;;;;;14.07;4.90;;;3.50;99.90;;;;;;5053671;28;20419;-81
2021/03/22 03:15:32;;;;;;;12.40;5.30;;;3.70;99.90;;;;;;5054152;28;20186;-81
2021/03/22 03:17:57;;;;;;;24.90;7.20;;;3.70;99.90;;;;;;5053611;28;20171;-81
2021/03/22 03:20:29;;;;;;;17.63;6.10;;;3.20;99.90;;;;;;5071899;28;20171;-82
2021/03/22 03:22:56;;;;;;;20.20;6.70;;;3.70;99.90;;;;;;5071427;28;20246;-81
2021/03/22 03:25:24;;;;;;;15.77;5.50;;;3.60;99.90;;;;;;5053743;28;20418;-81
2021/03/22 03:27:50;;;;;;;13.27;5.17;;;3.80;99.90;;;;;;5071431;28;20534;-81
2021/03/22 03:30:25;;;;;;;18.60;5.27;;;3.80;99.90;;;;;;5053567;28;20414;-81
2021/03/22 03:32:52;;;;;;;14.73;6.27;;;3.80;99.90;;;;;;5053558;28;20516;-81
2021/03/22 03:35:20;;;;;;;13.00;4.80;;;3.40;99.90;;;;;;5053503;28;20410;-82
2021/03/22 03:37:45;;;;;;;11.93;5.07;;;3.20;99.90;;;;;;5053597;28;20422;-82
2021/03/22 03:40:15;;;;;;;16.47;5.20;;;3.30;99.90;;;;;;5071502;28;20420;-81
2021/03/22 03:42:41;;;;;;;19.20;5.90;;;3.60;99.90;;;;;;5071596;28;20245;-81
2021/03/22 03:45:12;;;;;;;12.57;5.30;;;3.50;99.90;;;;;;5072996;28;20503;-82
2021/03/22 03:47:39;;;;;;;13.00;6.97;;;3.80;99.90;;;;;;5071838;28;20171;-81
2021/03/22 03:50:21;;;;;;;16.33;5.50;;;3.30;99.90;;;;;;5053605;28;20459;-82
2021/03/22 03:52:46;;;;;;;23.67;7.33;;;3.60;99.90;;;;;;5053751;28;20436;-82
2021/03/22 03:55:13;;;;;;;19.53;5.90;;;3.60;99.90;;;;;;5053721;28;20761;-82
2021/03/22 03:57:39;;;;;;;11.67;5.17;;;3.70;99.90;;;;;;5071735;28;20198;-81
2021/03/22 04:00:16;;;;;;;24.10;6.57;;;3.60;99.90;;;;;;5053459;28;20510;-81
2021/03/22 04:02:42;;;;;;;13.70;5.50;;;3.60;99.90;;;;;;5071569;28;20608;-82
2021/03/22 04:05:09;;;;;;;17.00;7.03;;;3.70;99.90;;;;;;5071528;28;20417;-82
2021/03/22 04:07:35;;;;;;;9.83;5.37;;;3.60;99.90;;;;;;5071464;28;20183;-81
2021/03/22 04:10:00;;;;;;;11.63;6.00;;;3.70;99.90;;;;;;5071580;28;20467;-81
2021/03/22 04:12:26;;;;;;;18.53;6.53;;;3.50;99.90;;;;;;5053752;28;20186;-81
2021/03/22 04:14:52;;;;;;;18.50;6.50;;;3.70;99.90;;;;;;5053486;28;20623;-81
2021/03/22 04:17:17;;;;;;;31.97;6.83;;;3.60;99.90;;;;;;5053881;28;20519;-81
2021/03/22 04:19:43;;;;;;;16.23;6.90;;;3.20;99.90;;;;;;5071509;28;20175;-81
2021/03/22 04:22:10;;;;;;;19.10;6.80;;;3.30;99.90;;;;;;5053504;28;20257;-81
2021/03/22 04:24:35;;;;;;;23.67;6.10;;;3.70;99.90;;;;;;5053424;28;20246;-81
2021/03/22 04:27:01;;;;;;;24.60;6.30;;;3.60;99.90;;;;;;5071542;28;20413;-81
2021/03/22 04:29:26;;;;;;;17.20;5.53;;;3.70;99.90;;;;;;5053342;28;20580;-82
2021/03/22 04:31:52;;;;;;;16.60;6.17;;;3.60;99.90;;;;;;5053316;28;20727;-80
2021/03/22 04:34:18;;;;;;;21.07;6.60;;;3.60;99.90;;;;;;5071239;28;20175;-81
2021/03/22 04:36:43;;;;;;;17.73;7.27;;;3.70;99.90;;;;;;5071683;28;20522;-82
2021/03/22 04:39:09;;;;;;;15.93;5.90;;;3.20;99.90;;;;;;5053107;28;20277;-82
2021/03/22 04:41:36;;;;;;;18.80;6.40;;;3.70;99.90;;;;;;5074449;28;20422;-81
2021/03/22 04:44:02;;;;;;;16.43;6.33;;;3.60;99.90;;;;;;5056781;28;20253;-81
2021/03/22 04:46:28;;;;;;;24.10;6.40;;;3.60;99.90;;;;;;5057132;28;20555;-81
2021/03/22 04:48:54;;;;;;;23.83;6.73;;;3.60;99.90;;;;;;5060076;28;20449;-82
2021/03/22 04:51:19;;;;;;;16.90;5.60;;;3.10;99.90;;;;;;5056955;28;20175;-82
2021/03/22 04:53:45;;;;;;;13.67;5.63;;;3.50;99.90;;;;;;5056723;28;20180;-81
2021/03/22 04:56:11;;;;;;;30.67;7.33;;;3.20;99.90;;;;;;5056881;28;20324;-80
2021/03/22 04:58:38;;;;;;;17.07;5.67;;;3.70;99.90;;;;;;5076868;28;20342;-81
2021/03/22 05:01:05;;;;;;;16.13;5.83;;;3.70;99.90;;;;;;5074590;28;20510;-81
2021/03/22 05:03:31;;;;;;;17.77;6.60;;;3.50;99.90;;;;;;5056445;28;20481;-80
2021/03/22 05:05:57;;;;;;;8.13;4.60;;;3.60;99.90;;;;;;5074954;28;20418;-81
2021/03/22 05:08:24;;;;;;;16.37;5.50;;;3.80;99.90;;;;;;5074764;28;20436;-82
2021/03/22 05:10:52;;;;;;;13.80;5.40;;;3.60;99.90;;;;;;5056706;28;20601;-82
2021/03/22 05:13:20;;;;;;;17.33;7.37;;;3.20;99.90;;;;;;5074516;28;20426;-82
2021/03/22 05:15:45;;;;;;;15.23;5.93;;;3.50;99.90;;;;;;5074367;28;20901;-82
2021/03/22 05:18:13;;;;;;;17.73;8.10;;;3.60;99.90;;;;;;5074554;28;20425;-81
2021/03/22 05:20:45;;;;;;;14.03;6.20;;;3.60;99.90;;;;;;5074691;28;20183;-81
2021/03/22 05:23:20;;;;;;;15.10;5.83;;;3.40;99.90;;;;;;5056499;28;20484;-83
2021/03/22 05:25:46;;;;;;;16.60;6.50;;;3.70;99.90;;;;;;5056936;28;20908;-82
2021/03/22 05:28:13;;;;;;;22.83;11.30;;;3.20;99.90;;;;;;5057591;28;20430;-82
2021/03/22 05:30:40;;;;;;;24.97;10.83;;;3.70;99.90;;;;;;5074353;28;20484;-82
2021/03/22 05:33:13;;;;;;;23.53;8.73;;;3.30;99.90;;;;;;5056338;28;20920;-82
2021/03/22 05:35:40;;;;;;;21.37;8.63;;;3.70;99.90;;;;;;5057688;28;20417;-81
2021/03/22 05:38:07;;;;;;;16.10;6.33;;;3.30;99.90;;;;;;5056646;28;20558;-81
2021/03/22 05:40:40;;;;;;;20.70;5.43;;;3.50;99.90;;;;;;5056359;28;20745;-82
2021/03/22 05:43:36;;;;;;;13.00;7.00;;;3.80;99.90;;;;;;5056671;28;20477;-81
2021/03/22 05:46:09;;;;;;;10.30;5.23;;;3.70;99.90;;;;;;5056264;28;20464;-82
2021/03/22 05:49:13;;;;;;;12.03;5.30;;;3.60;99.90;;;;;;5055915;28;20453;-82
2021/03/22 05:51:58;;;;;;;23.83;6.27;;;3.40;99.90;;;;;;5073608;28;20441;-81
2021/03/22 05:54:54;;;;;;;9.97;5.27;;;3.60;99.90;;;;;;5055753;28;20948;-81
2021/03/22 05:57:43;;;;;;;16.65;6.80;;;3.60;99.90;;;;;;5073045;28;20890;-81
2021/03/22 06:00:29;;;;;;;46.73;28.40;;;3.80;99.90;;;;;;5055936;28;20728;-81
2021/03/22 06:03:09;;;;;;;18.33;6.00;;;3.80;99.90;;;;;;5055450;28;20457;-81
2021/03/22 06:06:02;;;;;;;13.57;6.63;;;3.90;99.90;;;;;;5073522;28;20417;-81
2021/03/22 06:08:44;;;;;;;17.27;7.27;;;3.60;99.90;;;;;;5055464;28;20467;-80
2021/03/22 06:11:19;;;;;;;18.07;5.50;;;3.70;99.90;;;;;;5073617;28;20947;-81
2021/03/22 06:13:49;;;;;;;15.50;5.60;;;3.70;99.90;;;;;;5056252;28;20413;-81
2021/03/22 06:16:43;;;;;;;11.60;5.83;;;3.80;99.90;;;;;;5051823;28;20517;-81
2021/03/22 06:19:12;;;;;;;12.30;5.43;;;3.80;99.90;;;;;;5068062;28;20421;-82
2021/03/22 06:21:41;;;;;;;10.93;4.90;;;3.30;99.90;;;;;;5054530;28;20418;-81
2021/03/22 06:24:27;;;;;;;16.57;4.90;;;3.80;99.90;;;;;;5054460;28;20979;-80
2021/03/22 06:26:56;;;;;;;11.70;5.20;;;3.70;99.90;;;;;;5054938;28;20443;-82
2021/03/22 06:29:27;;;;;;;16.30;5.13;;;3.30;99.90;;;;;;5055146;28;20429;-81
2021/03/22 06:32:00;;;;;;;16.13;5.87;;;3.70;99.90;;;;;;5053968;28;20512;-81
2021/03/22 06:34:43;;;;;;;36.77;6.97;;;3.80;99.90;;;;;;5044768;28;20425;-77
2021/03/22 06:37:13;;;;;;;16.67;5.93;;;3.70;99.90;;;;;;5063097;28;20917;-81
2021/03/22 06:43:20;;;;;;;10.63;3.80;;;3.80;99.90;;;;;;4822267;28;20594;-76
2021/03/22 06:46:05;;;;;;;11.83;5.30;;;3.60;99.90;;;;;;5056790;22;20390;-86
2021/03/22 06:48:33;;;;;;;12.63;6.07;;;3.70;99.90;;;;;;5058024;28;20441;-83
2021/03/22 06:54:34;;;;;;;17.10;6.70;;;4.00;99.90;;;;;;5054969;28;20437;-83
2021/03/22 06:57:07;;;;;;;16.80;5.87;;;4.00;99.90;;;;;;5054953;28;20391;-83
2021/03/22 06:59:33;;;;;;;25.40;6.97;;;4.10;99.90;;;;;;5054486;28;20399;-83
2021/03/22 07:02:16;;;;;;;12.37;5.00;;;3.40;99.90;;;;;;5036092;28;20436;-84
2021/03/22 07:04:42;;;;;;;17.03;5.70;;;3.80;99.90;;;;;;5055092;28;20199;-82
2021/03/22 07:07:15;;;;;;;19.13;6.50;;;3.40;99.90;;;;;;5055863;28;20422;-84
2021/03/22 07:10:01;;;;;;;16.37;5.67;;;4.00;99.90;;;;;;5041195;28;20171;-84
2021/03/22 07:12:38;;;;;;;12.07;5.10;;;4.00;99.90;;;;;;5035698;28;20415;-84
2021/03/22 07:15:16;;;;;;;11.13;5.30;;;3.80;99.90;;;;;;5054698;28;20414;-86
2021/03/22 07:21:19;;;;;;;16.70;5.10;;;4.10;99.90;;;;;;5054674;28;20399;-85
2021/03/22 07:23:45;;;;;;;17.03;5.27;;;4.20;99.90;;;;;;5037453;28;20462;-84
2021/03/22 07:26:56;;;;;;;16.30;5.50;;;3.70;99.90;;;;;;5036841;28;20421;-83
2021/03/22 07:29:26;;;;;;;20.17;5.43;;;4.20;99.90;;;;;;5033889;28;20179;-84
2021/03/22 07:32:19;;;;;;;12.73;3.43;;;4.00;99.90;;;;;;5055357;28;20468;-84
2021/03/22 07:35:30;;;;;;;14.10;4.80;;;4.20;99.90;;;;;;5036427;28;20430;-85
2021/03/22 07:38:04;;;;;;;9.10;4.07;;;3.80;99.90;;;;;;5021011;28;20477;-85
2021/03/22 07:40:53;;;;;;;14.57;4.90;;;4.00;99.90;;;;;;5036242;28;20492;-86
2021/03/22 07:43:41;;;;;;;11.27;4.33;;;4.30;99.90;;;;;;5036364;28;20562;-84
2021/03/22 07:46:30;;;;;;;11.53;4.47;;;4.20;99.90;;;;;;5053836;28;20442;-84
2021/03/22 07:49:22;;;;;;;10.93;3.83;;;4.30;99.90;;;;;;5037171;28;20414;-84
2021/03/22 07:51:53;;;;;;;14.30;4.60;;;4.20;99.90;;;;;;5035891;28;20407;-83
2021/03/22 07:54:32;;;;;;;13.40;4.30;;;4.50;99.90;;;;;;5054052;28;20398;-86
2021/03/22 07:57:47;;;;;;;10.00;4.60;;;4.50;99.90;;;;;;5036584;28;20466;-85
2021/03/22 08:00:32;;;;;;;12.10;4.57;;;4.40;99.90;;;;;;5039858;28;20420;-85
2021/03/22 08:03:17;;;;;;;10.43;4.57;;;4.70;99.90;;;;;;5036238;28;20833;-85
2021/03/22 08:06:04;;;;;;;17.13;5.23;;;4.70;99.90;;;;;;5036226;28;20425;-84
2021/03/22 08:11:57;;;;;;;14.13;5.17;;;5.00;99.90;;;;;;5053941;28;20405;-85
2021/03/22 08:14:29;;;;;;;8.47;3.47;;;4.70;99.90;;;;;;5038602;28;20437;-83
2021/03/22 08:17:22;;;;;;;17.03;4.37;;;4.60;99.90;;;;;;5059224;28;20865;-82
2021/03/22 08:20:17;;;;;;;6.50;2.73;;;4.80;99.90;;;;;;5058335;28;20413;-84
2021/03/22 08:23:00;;;;;;;5.03;2.60;;;4.70;99.90;;;;;;5040439;28;20470;-85
2021/03/22 08:25:47;;;;;;;10.10;5.43;;;4.80;99.90;;;;;;5040458;28;20414;-84
2021/03/22 08:28:38;;;;;;;9.57;4.30;;;4.60;99.90;;;;;;5040491;28;20422;-86
2021/03/22 08:31:31;;;;;;;13.13;3.60;;;4.90;99.90;;;;;;5039972;28;20407;-86
2021/03/22 08:34:24;;;;;;;9.07;3.60;;;4.90;99.90;;;;;;5058189;28;20402;-85
2021/03/22 08:37:03;;;;;;;18.07;2.87;;;4.90;99.90;;;;;;5040358;28;20906;-80
2021/03/22 08:39:56;;;;;;;13.73;3.80;;;4.90;99.90;;;;;;5039453;28;20999;-84
2021/03/22 08:42:39;;;;;;;8.60;2.97;;;5.10;99.90;;;;;;5057448;28;20454;-84
2021/03/22 08:45:43;;;;;;;10.67;3.93;;;5.00;99.90;;;;;;5039987;28;20403;-85
2021/03/22 08:48:17;;;;;;;6.10;2.70;;;5.00;99.90;;;;;;5018394;28;20461;-84
2021/03/22 08:50:43;;;;;;;12.00;3.20;;;5.10;99.90;;;;;;5056920;28;20394;-79
2021/03/22 08:53:09;;;;;;;12.13;3.97;;;5.20;99.90;;;;;;5057166;28;20516;-86
2021/03/22 08:55:48;;;;;;;9.20;3.20;;;5.20;99.90;;;;;;5057635;28;20523;-83
2021/03/22 08:58:29;;;;;;;14.63;3.83;;;5.10;99.90;;;;;;5039241;28;20259;-84
2021/03/22 09:01:18;;;;;;;18.30;5.83;;;5.00;99.90;;;;;;5038998;28;20439;-79
2021/03/22 09:03:45;;;;;;;9.40;3.43;;;5.10;99.90;;;;;;5039395;28;20470;-85
2021/03/22 09:06:15;;;;;;;18.13;4.13;;;5.00;99.90;;;;;;5056780;28;20448;-84
2021/03/22 09:08:55;;;;;;;11.17;3.00;;;4.80;99.90;;;;;;5058506;28;20418;-85
2021/03/22 09:11:24;;;;;;;10.90;3.70;;;5.00;99.90;;;;;;5056844;28;20391;-84
2021/03/22 09:13:51;;;;;;;26.90;6.00;;;4.60;99.90;;;;;;5040083;28;21047;-84
2021/03/22 09:16:48;;;;;;;8.13;3.97;;;5.20;99.90;;;;;;5039242;28;20480;-84
2021/03/22 09:19:14;;;;;;;12.17;3.80;;;5.30;99.90;;;;;;5057693;28;20402;-85
2021/03/22 09:22:12;;;;;;;4.20;2.47;;;5.10;99.90;;;;;;5039018;28;20494;-83
2021/03/22 09:27:24;;;;;;;9.70;3.37;;;5.40;99.90;;;;;;5055810;28;20504;-84
2021/03/22 09:29:56;;;;;;;13.47;5.27;;;5.40;99.90;;;;;;5058491;28;20179;-83
2021/03/22 09:34:53;;;;;;;4.63;2.47;;;5.70;99.90;;;;;;5056957;28;20956;-83
2021/03/22 09:37:37;;;;;;;5.83;3.00;;;6.00;98.00;;;;;;5038389;28;20419;-84
2021/03/22 09:40:24;;;;;;;5.90;2.40;;;6.10;77.50;;;;;;5038035;28;20777;-85
2021/03/22 09:43:09;;;;;;;4.70;3.03;;;6.20;56.60;;;;;;5048864;28;20466;-85
2021/03/22 09:45:55;;;;;;;8.53;3.97;;;6.40;42.10;;;;;;5056901;28;20407;-84
2021/03/22 09:48:28;;;;;;;6.60;2.33;;;6.40;28.90;;;;;;5056133;28;20504;-85
2021/03/22 09:51:03;;;;;;;21.07;3.00;;;6.20;26.10;;;;;;5057980;28;20399;-77
2021/03/22 09:53:53;;;;;;;10.07;3.87;;;6.00;24.60;;;;;;5037280;28;20438;-84
2021/03/22 09:56:35;;;;;;;8.00;3.00;;;6.00;25.80;;;;;;5037497;28;20422;-85
2021/03/22 09:59:29;;;;;;;8.03;3.80;;;6.10;26.80;;;;;;5038031;28;20868;-86
2021/03/22 10:01:57;;;;;;;10.67;4.07;;;5.90;14.60;;;;;;5038367;28;20427;-85
2021/03/22 10:04:27;;;;;;;6.60;3.80;;;6.10;14.30;;;;;;5054839;28;20509;-84
2021/03/22 10:07:18;;;;;;;6.47;2.00;;;5.80;10.90;;;;;;5038231;28;20499;-85
2021/03/22 10:10:00;;;;;;;9.77;3.63;;;5.80;11.90;;;;;;5033346;28;20418;-86
2021/03/22 10:12:38;;;;;;;8.47;2.90;;;5.70;21.90;;;;;;5037846;28;20422;-85
2021/03/22 10:15:13;;;;;;;5.03;3.10;;;5.60;25.40;;;;;;5037984;28;20475;-85
2021/03/22 10:21:15;;;;;;;8.10;3.47;;;5.50;49.40;;;;;;5055551;28;20389;-86
2021/03/22 10:24:18;;;;;;;9.17;3.23;;;5.60;64.50;;;;;;5038010;28;20971;-87
2021/03/22 10:26:49;;;;;;;7.23;5.10;;;5.80;71.20;;;;;;5037861;28;20411;-84
2021/03/22 10:29:22;;;;;;;6.77;4.10;;;5.80;81.80;;;;;;5038447;28;20497;-85
2021/03/22 10:32:03;;;;;;;7.60;3.37;;;5.80;93.70;;;;;;5037772;28;20956;-86
2021/03/22 10:34:39;;;;;;;12.07;5.13;;;5.80;99.90;;;;;;5055518;28;20398;-87
2021/03/22 10:37:22;;;;;;;12.07;3.30;;;6.10;99.90;;;;;;5054775;28;20715;-87
2021/03/22 10:39:49;;;;;;;9.87;4.00;;;6.00;99.90;;;;;;5038274;28;20421;-86
2021/03/22 10:42:25;;;;;;;7.90;4.30;;;6.30;99.90;;;;;;5037631;28;20821;-85
2021/03/22 10:44:51;;;;;;;4.00;3.23;;;6.30;93.10;;;;;;5037691;28;20500;-82
2021/03/22 10:47:19;;;;;;;10.00;4.20;;;6.50;60.30;;;;;;5038861;28;20469;-86
2021/03/22 10:49:45;;;;;;;4.80;3.40;;;6.20;32.20;;;;;;5055456;28;20445;-85
2021/03/22 10:52:24;;;;;;;4.93;2.50;;;6.10;44.10;;;;;;5037110;28;20438;-85
2021/03/22 10:54:52;;;;;;;15.30;4.17;;;6.20;30.90;;;;;;5054482;28;20773;-85
2021/03/22 11:00:47;;;;;;;9.30;3.90;;;6.10;26.00;;;;;;5110691;27;20562;-83
2021/03/22 11:03:20;;;;;;;6.20;3.77;;;6.10;17.20;;;;;;5111106;28;20411;-86
2021/03/22 11:05:47;;;;;;;7.03;4.17;;;6.30;10.10;;;;;;5113294;28;20178;-85
2021/03/22 11:08:27;;;;;;;6.67;3.40;;;6.30;1.00;;;;;;5109473;28;20499;-85
2021/03/22 11:11:04;;;;;;;4.47;4.03;;;6.30;9.60;;;;;;5109236;28;20426;-86
2021/03/22 11:13:34;;;;;;;7.57;3.63;;;6.40;28.30;;;;;;5109168;28;20415;-82
2021/03/22 11:16:00;;;;;;;8.60;3.60;;;6.50;30.00;;;;;;5110649;28;20408;-83
2021/03/22 11:18:28;;;;;;;9.60;4.70;;;6.50;18.40;;;;;;5110696;28;20462;-83
2021/03/22 11:20:56;;;;;;;5.93;3.97;;;6.40;13.30;;;;;;5110785;28;20178;-83
2021/03/22 11:23:45;;;;;;;5.33;3.23;;;6.60;7.00;;;;;;5110122;28;20876;-85
2021/03/22 11:26:17;;;;;;;3.80;3.20;;;6.60;1.00;;;;;;5108750;28;20455;-83
2021/03/22 11:28:43;;;;;;;7.77;3.43;;;6.70;1.00;;;;;;5109006;28;20456;-82
2021/03/22 11:31:20;;;;;;;8.33;4.00;;;6.50;1.00;;;;;;5109305;28;20415;-83
2021/03/22 11:34:20;;;;;;;9.50;4.33;;;6.50;4.50;;;;;;5113401;28;20426;-81
2021/03/22 11:36:47;;;;;;;6.07;4.23;;;6.60;12.80;;;;;;5109951;28;20416;-82
2021/03/22 11:39:23;;;;;;;13.83;3.50;;;6.80;19.00;;;;;;5108489;28;20455;-83
2021/03/22 11:41:54;;;;;;;4.37;3.50;;;7.00;1.10;;;;;;5108819;28;20455;-83
2021/03/22 11:44:25;;;;;;;20.60;4.30;;;7.10;1.00;;;;;;5106365;28;20957;-83
2021/03/22 11:46:54;;;;;;;8.30;4.40;;;7.00;1.00;;;;;;5108472;28;20447;-84
2021/03/22 11:49:41;;;;;;;15.13;4.50;;;7.00;1.00;;;;;;5107799;28;20458;-81
2021/03/22 11:52:20;;;;;;;6.53;3.73;;;6.90;1.00;;;;;;5111181;28;20491;-83
2021/03/22 11:54:57;;;;;;;9.40;4.70;;;6.90;1.00;;;;;;5108383;28;21033;-84
2021/03/22 11:57:27;;;;;;;11.67;3.87;;;6.70;1.00;;;;;;5109676;28;20457;-83
2021/03/22 11:59:57;;;;;;;13.00;4.83;;;6.60;1.00;;;;;;5109008;28;20498;-82
2021/03/22 12:02:48;;;;;;;7.77;5.40;;;6.60;1.00;;;;;;5108497;28;20415;-82
2021/03/22 12:05:36;;;;;;;9.10;5.03;;;6.60;1.00;;;;;;5108062;28;20424;-84
2021/03/22 12:08:40;;;;;;;7.67;4.50;;;6.40;1.00;;;;;;5108818;28;20469;-83
2021/03/22 12:11:12;;;;;;;8.20;5.13;;;6.30;1.00;;;;;;5100655;28;20941;-86
2021/03/22 12:13:38;;;;;;;13.67;5.33;;;6.30;6.70;;;;;;5094940;28;20460;-85
2021/03/22 12:16:05;;;;;;;11.50;4.47;;;6.20;4.20;;;;;;5094918;28;20485;-85
2021/03/22 12:18:35;;;;;;;11.33;5.70;;;6.30;9.10;;;;;;5094838;28;20175;-86
2021/03/22 12:21:07;;;;;;;13.83;5.73;;;6.40;6.10;;;;;;5094740;28;20456;-86
2021/03/22 12:23:33;;;;;;;9.50;5.00;;;6.30;1.40;;;;;;5094903;28;20420;-84
2021/03/22 12:25:59;;;;;;;8.93;4.87;;;6.30;2.90;;;;;;5096092;28;20425;-86
2021/03/22 12:28:24;;;;;;;10.73;5.43;;;6.50;1.00;;;;;;5094238;28;20189;-86
2021/03/22 12:30:50;;;;;;;15.23;5.77;;;6.50;1.00;;;;;;5094666;28;20200;-86
2021/03/22 12:33:21;;;;;;;17.70;6.63;;;6.50;1.00;;;;;;5096201;28;20493;-86
2021/03/22 12:35:47;;;;;;;7.27;5.50;;;6.50;1.00;;;;;;5095999;28;20171;-83
2021/03/22 12:38:12;;;;;;;7.63;5.93;;;6.70;3.70;;;;;;5093862;28;20452;-83
2021/03/22 12:40:38;;;;;;;12.67;7.13;;;6.80;1.00;;;;;;5094791;28;20476;-84
2021/03/22 12:43:04;;;;;;;15.40;7.10;;;6.70;1.00;;;;;;5094803;28;20179;-83
2021/03/22 12:45:33;;;;;;;11.53;5.97;;;6.70;1.00;;;;;;5094222;28;20281;-83
2021/03/22 12:47:59;;;;;;;8.93;6.80;;;6.60;1.00;;;;;;5094789;28;20227;-82
2021/03/22 12:50:34;;;;;;;17.73;12.10;;;6.50;1.00;;;;;;5095454;28;20424;-83
2021/03/22 12:53:01;;;;;;;38.93;24.27;;;6.50;1.00;;;;;;5093654;28;20420;-85
2021/03/22 12:55:29;;;;;;;14.13;7.60;;;6.40;1.00;;;;;;5095977;28;20425;-86
2021/03/22 12:57:57;;;;;;;13.80;8.90;;;6.30;1.00;;;;;;5093945;28;20408;-85
2021/03/22 13:00:25;;;;;;;17.93;6.63;;;6.30;4.80;;;;;;5093938;28;20495;-81
2021/03/22 13:02:51;;;;;;;6.23;5.13;;;6.20;6.60;;;;;;5094742;28;20762;-84
2021/03/22 13:05:26;;;;;;;8.33;5.40;;;6.20;9.40;;;;;;5094039;28;20539;-85
2021/03/22 13:07:53;;;;;;;22.13;16.73;;;6.20;12.00;;;;;;5095703;28;20177;-86
2021/03/22 13:10:24;;;;;;;29.93;18.93;;;6.10;13.50;;;;;;5095417;28;20417;-84
2021/03/22 13:12:50;;;;;;;18.33;10.40;;;6.00;25.50;;;;;;5096805;28;20424;-84
2021/03/22 13:15:27;;;;;;;8.20;6.80;;;5.90;32.40;;;;;;5094551;28;20419;-86
2021/03/22 13:17:53;;;;;;;7.47;6.20;;;5.90;36.50;;;;;;5090820;28;20570;-86
2021/03/22 13:20:20;;;;;;;11.70;5.67;;;6.10;40.40;;;;;;5092074;28;20563;-86
2021/03/22 13:22:46;;;;;;;8.77;6.00;;;6.10;40.50;;;;;;5091546;28;20187;-85
2021/03/22 13:25:12;;;;;;;8.40;5.03;;;6.30;43.50;;;;;;5093678;28;20436;-84
2021/03/22 13:27:38;;;;;;;4.50;3.90;;;6.40;33.30;;;;;;5094232;28;20232;-85
2021/03/22 13:30:06;;;;;;;10.80;5.33;;;6.60;14.60;;;;;;5093023;28;20436;-85
2021/03/22 13:32:32;;;;;;;6.40;4.97;;;6.30;10.90;;;;;;5093328;28;20187;-86
2021/03/22 13:34:57;;;;;;;7.70;7.10;;;6.30;17.00;;;;;;5099566;28;20760;-86
2021/03/22 13:37:25;;;;;;;11.20;9.00;;;6.20;16.30;;;;;;5099855;28;20178;-86
2021/03/22 13:39:52;;;;;;;11.00;5.80;;;6.20;35.60;;;;;;5101027;28;20305;-86
2021/03/22 13:42:19;;;;;;;7.93;5.70;;;6.20;37.30;;;;;;5113677;28;20480;-85
2021/03/22 13:44:45;;;;;;;13.53;6.50;;;6.00;45.70;;;;;;5113504;28;20906;-83
2021/03/22 13:47:12;;;;;;;7.63;6.20;;;5.80;52.10;;;;;;5129754;27;20416;-86
2021/03/22 13:49:38;;;;;;;8.90;5.47;;;5.90;62.00;;;;;;5115229;28;20922;-85